createdAt,value
2023-02-21T00:02:03.809Z,96779.63
2023-02-21T00:04:49.420Z,96770.41
2023-02-21T00:07:35.166Z,96771.78
2023-02-21T00:10:22.698Z,96772.63
2023-02-21T00:13:08.577Z,96769.28
2023-02-21T00:15:54.449Z,96773.66
2023-02-21T00:18:40.693Z,96770.44
2023-02-21T00:21:26.548Z,96767.81
2023-02-21T00:24:12.186Z,96763.19
2023-02-21T00:26:59.489Z,96768.50
2023-02-21T00:29:45.550Z,96762.72
2023-02-21T00:32:31.657Z,96764.41
2023-02-21T00:35:17.721Z,96759.41
2023-02-21T00:38:03.684Z,96759.88
2023-02-21T00:40:49.796Z,96762.22
2023-02-21T00:43:36.849Z,96764.88
2023-02-21T00:46:22.822Z,96759.75
2023-02-21T00:49:08.667Z,96756.78
2023-02-21T00:51:54.625Z,96748.97
2023-02-21T00:54:40.616Z,96751.78
2023-02-21T00:57:26.231Z,96747.78
2023-02-21T01:00:13.443Z,96755.16
2023-02-21T01:03:00.109Z,96745.66
2023-02-21T01:05:45.859Z,96748.38
2023-02-21T01:08:31.828Z,96747.72
2023-02-21T01:11:17.864Z,96740.25
2023-02-21T01:14:03.610Z,96741.41
2023-02-21T01:16:51.425Z,96743.16
2023-02-21T01:19:37.810Z,96741.66
2023-02-21T01:22:23.936Z,96737.53
2023-02-21T01:25:09.897Z,96736.78
2023-02-21T01:27:56.209Z,96736.31
2023-02-21T01:30:42.301Z,96731.44
2023-02-21T01:33:29.645Z,96731.69
2023-02-21T01:36:15.391Z,96727.47
2023-02-21T01:39:01.445Z,96731.41
2023-02-21T01:41:47.379Z,96719.94
2023-02-21T01:44:50.395Z,96716.13
2023-02-21T01:47:36.294Z,96728.03
2023-02-21T01:50:31.915Z,96726.47
2023-02-21T01:53:18.403Z,96719.81
2023-02-21T01:56:04.355Z,96716.00
2023-02-21T01:58:51.118Z,96711.72
2023-02-21T02:01:44.528Z,96709.13
2023-02-21T02:04:30.890Z,96700.91
2023-02-21T02:07:18.325Z,96699.16
2023-02-21T02:10:04.134Z,96706.34
2023-02-21T02:12:43.731Z,96697.56
2023-02-21T02:15:43.186Z,96698.91
2023-02-21T02:18:23.639Z,96696.31
2023-02-21T02:21:09.899Z,96696.00
2023-02-21T02:24:01.478Z,96697.03
2023-02-21T02:27:08.724Z,96690.91
2023-02-21T02:29:50.662Z,96696.63
2023-02-21T02:32:34.149Z,96693.22
2023-02-21T02:35:06.773Z,96687.69
2023-02-21T02:37:40.428Z,96683.66
2023-02-21T02:40:14.854Z,96682.31
2023-02-21T02:42:50.336Z,96686.84
2023-02-21T02:45:22.815Z,96686.34
2023-02-21T02:47:53.541Z,96679.34
2023-02-21T02:50:24.342Z,96675.44
2023-02-21T02:52:53.940Z,96688.94
2023-02-21T02:55:27.842Z,96681.06
2023-02-21T02:57:56.295Z,96684.81
2023-02-21T03:00:24.868Z,96681.72
2023-02-21T03:03:09.618Z,96680.25
2023-02-21T03:05:51.007Z,96682.78
2023-02-21T03:08:22.794Z,96675.53
2023-02-21T03:10:57.029Z,96684.94
2023-02-21T03:13:34.459Z,96679.75
2023-02-21T03:16:10.044Z,96681.66
2023-02-21T03:18:42.360Z,96685.44
2023-02-21T03:21:18.943Z,96684.72
2023-02-21T03:23:49.530Z,96681.66
2023-02-21T03:26:17.590Z,96679.94
2023-02-21T03:28:46.302Z,96681.75
2023-02-21T03:31:15.976Z,96685.69
2023-02-21T03:33:44.854Z,96680.38
2023-02-21T03:36:15.746Z,96677.50
2023-02-21T03:38:44.043Z,96675.72
2023-02-21T03:41:14.125Z,96676.84
2023-02-21T03:43:42.577Z,96684.78
2023-02-21T03:46:10.822Z,96679.75
2023-02-21T03:48:39.113Z,96684.81
2023-02-21T03:51:07.485Z,96685.13
2023-02-21T03:53:37.137Z,96677.44
2023-02-21T03:56:05.987Z,96678.81
2023-02-21T03:58:34.245Z,96667.22
2023-02-21T04:01:03.624Z,96663.22
2023-02-21T04:03:32.129Z,96660.63
2023-02-21T04:06:00.475Z,96658.81
2023-02-21T04:08:28.707Z,96649.44
2023-02-21T04:10:58.302Z,96654.66
2023-02-21T04:13:26.555Z,96662.06
2023-02-21T04:15:54.816Z,96655.81
2023-02-21T04:18:23.050Z,96652.41
2023-02-21T04:20:51.438Z,96647.19
2023-02-21T04:23:20.273Z,96651.22
2023-02-21T04:25:49.148Z,96651.22
2023-02-21T04:28:18.762Z,96645.88
2023-02-21T04:30:47.223Z,96643.91
2023-02-21T04:33:15.432Z,96651.00
2023-02-21T04:35:43.885Z,96650.19
2023-02-21T04:38:12.096Z,96656.06
2023-02-21T04:40:40.312Z,96658.69
2023-02-21T04:43:08.578Z,96663.91
2023-02-21T04:45:38.178Z,96657.91
2023-02-21T04:48:06.778Z,96663.53
2023-02-21T04:50:35.009Z,96663.06
2023-02-21T04:53:03.309Z,96667.16
2023-02-21T04:55:31.549Z,96657.28
2023-02-21T04:57:59.819Z,96659.78
2023-02-21T05:00:28.074Z,96657.59
2023-02-21T05:02:58.276Z,96650.66
2023-02-21T05:05:26.648Z,96645.63
2023-02-21T05:07:54.958Z,96646.31
2023-02-21T05:10:25.452Z,96638.16
2023-02-21T05:12:55.378Z,96638.25
2023-02-21T05:15:23.816Z,96643.13
2023-02-21T05:17:52.086Z,96630.09
2023-02-21T05:20:21.937Z,96634.50
2023-02-21T05:22:50.491Z,96635.78
2023-02-21T05:25:21.102Z,96628.81
2023-02-21T05:27:49.323Z,96630.09
2023-02-21T05:30:19.901Z,96634.81
2023-02-21T05:32:48.241Z,96638.00
2023-02-21T05:35:17.574Z,96634.25
2023-02-21T05:37:47.221Z,96640.34
2023-02-21T05:40:16.992Z,96637.72
2023-02-21T05:42:45.453Z,96648.81
2023-02-21T05:45:13.756Z,96648.72
2023-02-21T05:47:41.977Z,96653.03
2023-02-21T05:50:10.297Z,96653.91
2023-02-21T05:52:38.534Z,96671.28
2023-02-21T05:55:08.674Z,96666.00
2023-02-21T05:57:39.608Z,96660.28
2023-02-21T06:00:14.556Z,96674.63
2023-02-21T06:02:42.810Z,96663.09
2023-02-21T06:05:11.999Z,96660.81
2023-02-21T06:07:40.258Z,96664.56
2023-02-21T06:10:10.139Z,96665.22
2023-02-21T06:12:38.357Z,96665.78
2023-02-21T06:15:07.501Z,96666.31
2023-02-21T06:17:35.709Z,96676.03
2023-02-21T06:20:04.063Z,96678.53
2023-02-21T06:22:32.522Z,96682.41
2023-02-21T06:25:00.982Z,96684.31
2023-02-21T06:27:30.630Z,96681.72
2023-02-21T06:29:58.899Z,96685.00
2023-02-21T06:32:27.768Z,96683.50
2023-02-21T06:34:56.058Z,96682.19
2023-02-21T06:37:24.398Z,96683.31
2023-02-21T06:39:52.619Z,96695.06
2023-02-21T06:42:21.233Z,96692.38
2023-02-21T06:44:51.031Z,96693.72
2023-02-21T06:47:19.338Z,96690.38
2023-02-21T06:49:47.584Z,96690.16
2023-02-21T06:52:16.564Z,96694.44
2023-02-21T06:54:46.025Z,96705.13
2023-02-21T06:57:14.237Z,96699.13
2023-02-21T06:59:42.472Z,96704.19
2023-02-21T07:02:18.298Z,96703.69
2023-02-21T07:04:46.951Z,96703.94
2023-02-21T07:07:15.584Z,96708.63
2023-02-21T07:09:44.082Z,96705.69
2023-02-21T07:12:12.428Z,96703.09
2023-02-21T07:14:40.813Z,96696.06
2023-02-21T07:17:09.023Z,96692.69
2023-02-21T07:19:38.619Z,96697.22
2023-02-21T07:22:06.936Z,96703.34
2023-02-21T07:24:36.691Z,96699.25
2023-02-21T07:27:05.767Z,96702.13
2023-02-21T07:29:34.037Z,96707.59
2023-02-21T07:32:02.426Z,96708.00
2023-02-21T07:34:30.649Z,96715.19
2023-02-21T07:37:00.226Z,96712.66
2023-02-21T07:39:28.459Z,96722.38
2023-02-21T07:41:56.663Z,96722.06
2023-02-21T07:44:25.005Z,96721.97
2023-02-21T07:46:53.295Z,96732.81
2023-02-21T07:49:21.537Z,96726.69
2023-02-21T07:51:49.820Z,96727.41
2023-02-21T07:54:19.763Z,96736.97
2023-02-21T07:56:49.633Z,96728.28
2023-02-21T07:59:17.939Z,96724.50
2023-02-21T08:01:47.588Z,96728.16
2023-02-21T08:04:20.394Z,96728.50
2023-02-21T08:06:49.368Z,96720.25
2023-02-21T08:09:18.928Z,96728.75
2023-02-21T08:11:47.135Z,96727.22
2023-02-21T08:14:15.351Z,96723.88
2023-02-21T08:16:43.579Z,96722.69
2023-02-21T08:19:11.951Z,96728.97
2023-02-21T08:21:40.206Z,96732.19
2023-02-21T08:24:08.579Z,96733.72
2023-02-21T08:26:38.186Z,96734.13
2023-02-21T08:29:06.447Z,96723.53
2023-02-21T08:31:36.131Z,96720.75
2023-02-21T08:34:05.160Z,96735.34
2023-02-21T08:36:33.758Z,96724.88
2023-02-21T08:39:02.021Z,96718.59
2023-02-21T08:41:38.443Z,96721.06
2023-02-21T08:44:07.195Z,96719.50
2023-02-21T08:46:36.097Z,96721.91
2023-02-21T08:49:05.299Z,96723.53
2023-02-21T08:51:34.497Z,96719.94
2023-02-21T08:54:03.360Z,96715.41
2023-02-21T08:56:31.867Z,96708.81
2023-02-21T08:59:02.099Z,96714.13
2023-02-21T09:01:34.269Z,96715.44
2023-02-21T09:04:02.640Z,96718.06
2023-02-21T09:06:31.206Z,96717.41
2023-02-21T09:08:59.665Z,96723.25
2023-02-21T09:11:28.002Z,96723.59
2023-02-21T09:13:56.268Z,96720.13
2023-02-21T09:16:26.245Z,96717.50
2023-02-21T09:18:56.888Z,96715.53
2023-02-21T09:21:24.936Z,96714.34
2023-02-21T09:23:54.911Z,96709.19
2023-02-21T09:26:24.387Z,96717.56
2023-02-21T09:28:53.164Z,96705.19
2023-02-21T09:31:22.190Z,96712.28
2023-02-21T09:33:51.907Z,96709.69
2023-02-21T09:36:23.630Z,96709.97
2023-02-21T09:38:51.932Z,96704.44
2023-02-21T09:41:21.304Z,96709.72
2023-02-21T09:43:52.631Z,96712.84
2023-02-21T09:46:26.016Z,96712.28
2023-02-21T09:48:55.647Z,96713.75
2023-02-21T09:51:25.134Z,96720.56
2023-02-21T09:53:56.211Z,96717.00
2023-02-21T09:56:28.707Z,96711.97
2023-02-21T09:58:58.881Z,96716.25
2023-02-21T10:01:34.076Z,96720.38
2023-02-21T10:04:15.034Z,96717.34
2023-02-21T10:06:48.826Z,96715.91
2023-02-21T10:09:25.447Z,96719.25
2023-02-21T10:12:04.772Z,96716.72
2023-02-21T10:14:42.177Z,96712.91
2023-02-21T10:17:15.679Z,96720.28
2023-02-21T10:19:49.989Z,96720.47
2023-02-21T10:22:22.123Z,96717.50
2023-02-21T10:24:51.032Z,96715.84
2023-02-21T10:27:21.312Z,96706.13
2023-02-21T10:29:52.369Z,96704.13
2023-02-21T10:32:21.148Z,96712.13
2023-02-21T10:34:50.867Z,96704.91
2023-02-21T10:37:29.244Z,96703.56
2023-02-21T10:40:02.149Z,96699.75
2023-02-21T10:42:47.856Z,96709.00
2023-02-21T10:45:17.927Z,96707.63
2023-02-21T10:47:55.131Z,96704.66
2023-02-21T10:50:44.414Z,96702.31
2023-02-21T10:53:26.488Z,96701.41
2023-02-21T10:56:19.959Z,96693.25
2023-02-21T10:58:49.492Z,96697.97
2023-02-21T11:01:21.346Z,96690.38
2023-02-21T11:03:52.306Z,96682.47
2023-02-21T11:06:28.420Z,96679.97
2023-02-21T11:08:56.748Z,96683.66
2023-02-21T11:11:37.265Z,96682.59
2023-02-21T11:14:22.050Z,96681.19
2023-02-21T11:17:14.524Z,96670.47
2023-02-21T11:19:54.236Z,96672.09
2023-02-21T11:22:26.594Z,96676.06
2023-02-21T11:25:06.322Z,96668.13
2023-02-21T11:27:36.679Z,96661.59
2023-02-21T11:30:12.588Z,96655.38
2023-02-21T11:32:42.002Z,96654.25
2023-02-21T11:35:24.205Z,96646.69
2023-02-21T11:37:56.527Z,96638.84
2023-02-21T11:40:27.994Z,96634.53
2023-02-21T11:43:22.478Z,96630.78
2023-02-21T11:46:01.030Z,96619.78
2023-02-21T11:48:32.977Z,96609.38
2023-02-21T11:51:07.541Z,96603.38
2023-02-21T11:53:41.216Z,96613.63
2023-02-21T11:56:18.866Z,96608.09
2023-02-21T11:58:56.519Z,96612.75
2023-02-21T12:01:29.908Z,96604.22
2023-02-21T12:04:44.038Z,96603.94
2023-02-21T12:07:18.400Z,96598.09
2023-02-21T12:09:54.295Z,96596.75
2023-02-21T12:12:32.831Z,96593.81
2023-02-21T12:15:07.221Z,96586.44
2023-02-21T12:17:53.598Z,96578.25
2023-02-21T12:20:27.287Z,96579.91
2023-02-21T12:23:12.347Z,96583.63
2023-02-21T12:25:53.548Z,96567.13
2023-02-21T12:28:27.959Z,96562.78
2023-02-21T12:31:09.588Z,96559.66
2023-02-21T12:33:45.832Z,96550.16
2023-02-21T12:36:36.917Z,96555.56
2023-02-21T12:39:17.535Z,96546.84
2023-02-21T12:41:51.274Z,96557.22
2023-02-21T12:44:22.611Z,96541.34
2023-02-21T12:46:54.940Z,96541.47
2023-02-21T12:49:25.677Z,96537.22
2023-02-21T12:51:59.127Z,96538.06
2023-02-21T12:54:36.827Z,96526.06
2023-02-21T12:57:09.462Z,96526.69
2023-02-21T12:59:47.615Z,96521.06
2023-02-21T13:02:22.014Z,96520.69
2023-02-21T13:04:55.809Z,96518.00
2023-02-21T13:07:26.388Z,96502.25
2023-02-21T13:09:56.162Z,96499.63
2023-02-21T13:12:28.286Z,96498.19
2023-02-21T13:14:58.638Z,96489.25
2023-02-21T13:17:27.801Z,96492.22
2023-02-21T13:20:01.724Z,96490.63
2023-02-21T13:23:25.199Z,96482.44
2023-02-21T13:26:04.902Z,96466.13
2023-02-21T13:28:36.532Z,96463.06
2023-02-21T13:31:06.601Z,96461.00
2023-02-21T13:33:39.462Z,96456.75
2023-02-21T13:36:19.895Z,96454.13
2023-02-21T13:38:48.615Z,96456.56
2023-02-21T13:41:17.514Z,96452.09
2023-02-21T13:43:51.300Z,96445.56
2023-02-21T13:46:58.780Z,96439.31
2023-02-21T13:49:48.327Z,96436.31
2023-02-21T13:52:28.831Z,96429.78
2023-02-21T13:55:26.244Z,96436.03
2023-02-21T13:58:30.045Z,96424.25
2023-02-21T14:01:18.934Z,96431.78
2023-02-21T14:03:47.216Z,96418.38
2023-02-21T14:06:36.569Z,96420.34
2023-02-21T14:09:08.218Z,96421.16
2023-02-21T14:11:39.503Z,96417.69
2023-02-21T14:14:21.817Z,96412.34
2023-02-21T14:16:54.799Z,96404.25
2023-02-21T14:19:26.635Z,96403.25
2023-02-21T14:22:02.842Z,96402.88
2023-02-21T14:24:33.520Z,96403.19
2023-02-21T14:27:05.301Z,96401.72
2023-02-21T14:29:36.574Z,96392.41
2023-02-21T14:32:27.725Z,96385.38
2023-02-21T14:34:57.964Z,96380.88
2023-02-21T14:37:29.546Z,96376.00
2023-02-21T14:40:00.319Z,96378.44
2023-02-21T14:42:36.824Z,96380.81
2023-02-21T14:45:30.554Z,96373.59
2023-02-21T14:48:10.126Z,96363.06
2023-02-21T14:50:45.175Z,96373.09
2023-02-21T14:53:40.019Z,96366.69
2023-02-21T14:56:35.078Z,96359.91
2023-02-21T14:59:32.055Z,96352.44
2023-02-21T15:02:08.430Z,96348.75
2023-02-21T15:04:44.053Z,96359.47
2023-02-21T15:07:18.812Z,96348.94
2023-02-21T15:09:47.547Z,96351.25
2023-02-21T15:12:17.950Z,96354.75
2023-02-21T15:14:49.961Z,96340.63
2023-02-21T15:17:20.382Z,96347.22
2023-02-21T15:20:02.809Z,96345.56
2023-02-21T15:22:31.123Z,96340.56
2023-02-21T15:25:13.058Z,96337.72
2023-02-21T15:27:55.549Z,96334.66
2023-02-21T15:30:25.869Z,96336.91
2023-02-21T15:32:59.244Z,96341.03
2023-02-21T15:35:34.329Z,96333.00
2023-02-21T15:38:05.201Z,96333.16
2023-02-21T15:40:33.591Z,96336.50
2023-02-21T15:43:02.608Z,96323.66
2023-02-21T15:45:32.643Z,96323.91
2023-02-21T15:48:01.834Z,96327.63
2023-02-21T15:50:35.487Z,96322.72
2023-02-21T15:53:19.081Z,96324.28
2023-02-21T15:55:48.838Z,96313.28
2023-02-21T15:58:23.788Z,96316.28
2023-02-21T16:01:07.233Z,96318.06
2023-02-21T16:03:38.346Z,96314.78
2023-02-21T16:06:20.998Z,96313.88
2023-02-21T16:09:02.070Z,96308.63
2023-02-21T16:11:45.459Z,96310.22
2023-02-21T16:14:23.855Z,96307.34
2023-02-21T16:16:56.198Z,96308.63
2023-02-21T16:19:24.803Z,96312.19
2023-02-21T16:22:12.811Z,96311.00
2023-02-21T16:24:41.723Z,96318.84
2023-02-21T16:27:12.881Z,96306.38
2023-02-21T16:29:41.146Z,96308.81
2023-02-21T16:32:17.417Z,96314.06
2023-02-21T16:34:45.707Z,96317.50
2023-02-21T16:37:15.894Z,96318.69
2023-02-21T16:39:44.453Z,96313.78
2023-02-21T16:42:12.732Z,96312.75
2023-02-21T16:44:41.074Z,96306.63
2023-02-21T16:47:09.429Z,96307.25
2023-02-21T16:49:37.637Z,96311.84
2023-02-21T16:52:06.125Z,96311.41
2023-02-21T16:54:35.687Z,96307.84
2023-02-21T16:57:03.954Z,96310.72
2023-02-21T16:59:32.251Z,96318.25
2023-02-21T17:02:01.344Z,96314.69
2023-02-21T17:04:29.765Z,96311.44
2023-02-21T17:06:59.611Z,96312.72
2023-02-21T17:09:29.472Z,96313.38
2023-02-21T17:12:00.143Z,96320.22
2023-02-21T17:14:28.210Z,96310.56
2023-02-21T17:16:59.128Z,96317.16
2023-02-21T17:19:27.328Z,96323.34
2023-02-21T17:21:58.123Z,96321.94
2023-02-21T17:24:26.367Z,96324.38
2023-02-21T17:26:54.968Z,96326.59
2023-02-21T17:29:25.515Z,96329.88
2023-02-21T17:31:54.463Z,96323.25
2023-02-21T17:34:22.964Z,96322.16
2023-02-21T17:36:51.770Z,96316.75
2023-02-21T17:39:20.470Z,96318.72
2023-02-21T17:41:49.222Z,96321.38
2023-02-21T17:44:19.000Z,96325.03
2023-02-21T17:46:49.472Z,96332.13
2023-02-21T17:49:18.824Z,96319.16
2023-02-21T17:51:49.199Z,96331.41
2023-02-21T17:54:19.398Z,96329.06
2023-02-21T17:56:47.743Z,96339.16
2023-02-21T17:59:16.572Z,96328.81
2023-02-21T18:01:44.994Z,96324.88
2023-02-21T18:04:15.210Z,96322.91
2023-02-21T18:06:43.687Z,96324.75
2023-02-21T18:09:12.097Z,96317.94
2023-02-21T18:11:40.354Z,96318.16
2023-02-21T18:14:08.575Z,96322.16
2023-02-21T18:16:36.838Z,96322.22
2023-02-21T18:19:05.095Z,96324.72
2023-02-21T18:21:34.951Z,96322.16
2023-02-21T18:24:03.539Z,96324.72
2023-02-21T18:26:31.765Z,96330.88
2023-02-21T18:29:00.007Z,96331.00
2023-02-21T18:31:28.289Z,96329.53
2023-02-21T18:33:56.570Z,96325.50
2023-02-21T18:36:26.529Z,96324.22
2023-02-21T18:38:56.375Z,96331.28
2023-02-21T18:41:24.598Z,96332.31
2023-02-21T18:43:53.378Z,96323.97
2023-02-21T18:46:23.835Z,96321.06
2023-02-21T18:48:52.346Z,96321.44
2023-02-21T18:51:21.370Z,96324.63
2023-02-21T18:53:50.481Z,96325.97
2023-02-21T18:56:21.147Z,96327.06
2023-02-21T18:58:49.535Z,96318.97
2023-02-21T19:01:19.633Z,96323.16
2023-02-21T19:03:48.238Z,96327.19
2023-02-21T19:06:18.070Z,96329.63
2023-02-21T19:08:46.844Z,96327.50
2023-02-21T19:11:15.845Z,96328.91
2023-02-21T19:13:47.391Z,96328.63
2023-02-21T19:16:15.816Z,96330.84
2023-02-21T19:18:44.122Z,96330.13
2023-02-21T19:21:12.973Z,96323.19
2023-02-21T19:23:41.352Z,96328.66
2023-02-21T19:26:09.607Z,96322.50
2023-02-21T19:28:39.964Z,96330.56
2023-02-21T19:31:10.738Z,96323.59
2023-02-21T19:33:40.088Z,96318.59
2023-02-21T19:36:09.891Z,96328.09
2023-02-21T19:38:38.312Z,96327.22
2023-02-21T19:41:07.457Z,96326.06
2023-02-21T19:43:36.012Z,96323.13
2023-02-21T19:46:04.483Z,96323.28
2023-02-21T19:48:34.151Z,96319.13
2023-02-21T19:51:02.384Z,96320.63
2023-02-21T19:53:30.628Z,96315.03
2023-02-21T19:55:58.837Z,96314.88
2023-02-21T19:58:27.056Z,96323.81
2023-02-21T20:00:55.413Z,96324.84
2023-02-21T20:03:23.749Z,96329.53
2023-02-21T20:05:53.753Z,96330.13
2023-02-21T20:08:22.103Z,96328.03
2023-02-21T20:10:50.905Z,96321.91
2023-02-21T20:13:20.223Z,96322.34
2023-02-21T20:15:50.726Z,96319.06
2023-02-21T20:18:19.008Z,96315.84
2023-02-21T20:20:49.557Z,96319.19
2023-02-21T20:23:19.221Z,96319.66
2023-02-21T20:25:47.805Z,96321.50
2023-02-21T20:28:16.101Z,96316.41
2023-02-21T20:30:44.570Z,96325.19
2023-02-21T20:33:12.901Z,96321.09
2023-02-21T20:35:41.228Z,96315.47
2023-02-21T20:38:10.827Z,96317.16
2023-02-21T20:40:40.507Z,96320.31
2023-02-21T20:43:08.768Z,96321.06
2023-02-21T20:45:38.481Z,96321.81
2023-02-21T20:48:08.906Z,96313.72
2023-02-21T20:50:37.182Z,96319.53
2023-02-21T20:53:05.798Z,96321.84
2023-02-21T20:55:37.297Z,96323.03
2023-02-21T20:58:07.150Z,96324.34
2023-02-21T21:00:37.743Z,96326.50
2023-02-21T21:03:06.676Z,96328.16
2023-02-21T21:05:34.877Z,96319.06
2023-02-21T21:08:03.195Z,96327.00
2023-02-21T21:10:31.464Z,96326.91
2023-02-21T21:12:59.826Z,96327.91
2023-02-21T21:15:29.937Z,96324.31
2023-02-21T21:17:58.293Z,96324.00
2023-02-21T21:20:27.112Z,96325.09
2023-02-21T21:22:55.423Z,96326.91
2023-02-21T21:25:23.720Z,96322.28
2023-02-21T21:27:51.994Z,96317.31
2023-02-21T21:30:23.344Z,96315.66
2023-02-21T21:32:53.031Z,96315.00
2023-02-21T21:35:22.099Z,96317.41
2023-02-21T21:37:50.813Z,96320.84
2023-02-21T21:40:19.404Z,96318.91
2023-02-21T21:42:49.966Z,96317.91
2023-02-21T21:45:19.596Z,96315.78
2023-02-21T21:47:48.598Z,96312.22
2023-02-21T21:50:19.232Z,96322.72
2023-02-21T21:52:51.323Z,96330.97
2023-02-21T21:55:21.993Z,96319.41
2023-02-21T21:57:53.359Z,96314.91
2023-02-21T22:00:23.777Z,96322.63
2023-02-21T22:02:57.147Z,96322.44
2023-02-21T22:05:27.661Z,96314.22
2023-02-21T22:07:56.587Z,96316.03
2023-02-21T22:10:26.041Z,96320.81
2023-02-21T22:12:56.561Z,96323.00
2023-02-21T22:15:25.453Z,96324.31
2023-02-21T22:17:54.130Z,96327.16
2023-02-21T22:20:28.420Z,96331.88
2023-02-21T22:22:59.036Z,96336.16
2023-02-21T22:25:30.161Z,96328.44
2023-02-21T22:28:00.537Z,96316.63
2023-02-21T22:30:28.894Z,96316.63
2023-02-21T22:32:57.184Z,96323.47
2023-02-21T22:35:25.611Z,96312.53
2023-02-21T22:37:55.852Z,96316.28
2023-02-21T22:40:28.027Z,96305.81
2023-02-21T22:42:59.317Z,96307.59
2023-02-21T22:45:28.963Z,96306.47
2023-02-21T22:47:57.731Z,96310.19
2023-02-21T22:50:27.112Z,96306.47
2023-02-21T22:52:57.642Z,96302.09
2023-02-21T22:55:29.732Z,96302.69
2023-02-21T22:57:59.719Z,96298.63
2023-02-21T23:00:33.272Z,96300.09
2023-02-21T23:03:02.621Z,96301.78
2023-02-21T23:05:31.428Z,96298.06
2023-02-21T23:07:59.709Z,96305.16
2023-02-21T23:10:29.651Z,96299.66
2023-02-21T23:13:00.009Z,96296.41
2023-02-21T23:15:28.883Z,96297.69
2023-02-21T23:17:57.175Z,96291.53
2023-02-21T23:20:29.223Z,96294.03
2023-02-21T23:22:58.947Z,96289.03
2023-02-21T23:25:35.077Z,96291.50
2023-02-21T23:28:06.878Z,96285.88
2023-02-21T23:30:42.112Z,96282.31
2023-02-21T23:33:14.480Z,96283.31
2023-02-21T23:35:43.320Z,96281.72
2023-02-21T23:38:15.556Z,96289.88
2023-02-21T23:40:46.776Z,96290.63
2023-02-21T23:43:16.862Z,96287.06
2023-02-21T23:45:48.217Z,96283.22
2023-02-21T23:48:16.545Z,96284.97
2023-02-21T23:50:46.520Z,96278.78
2023-02-21T23:53:16.546Z,96281.53
2023-02-21T23:55:47.150Z,96280.13
2023-02-21T23:58:17.159Z,96283.06
